createdAt,value
2019-02-23T00:02:19.481Z,37.03
2019-02-23T00:04:47.801Z,34.97
2019-02-23T00:07:16.019Z,28.37
2019-02-23T00:09:44.173Z,32.03
2019-02-23T00:12:12.374Z,31.27
2019-02-23T00:14:40.540Z,30.23
2019-02-23T00:17:08.980Z,29.87
2019-02-23T00:19:37.178Z,31.50
2019-02-23T00:22:05.340Z,34.20
2019-02-23T00:24:33.524Z,27.70
2019-02-23T00:27:01.964Z,26.77
2019-02-23T00:29:30.123Z,30.13
2019-02-23T00:31:58.282Z,35.53
2019-02-23T00:34:26.591Z,44.80
2019-02-23T00:36:54.861Z,45.13
2019-02-23T00:39:23.972Z,47.20
2019-02-23T00:41:52.180Z,39.37
2019-02-23T00:44:20.332Z,33.37
2019-02-23T00:46:48.495Z,33.07
2019-02-23T00:49:16.852Z,31.90
2019-02-23T00:51:45.185Z,30.67
2019-02-23T00:54:13.340Z,30.30
2019-02-23T00:56:41.547Z,32.30
2019-02-23T00:59:09.699Z,35.97
2019-02-23T01:01:37.872Z,26.83
2019-02-23T01:04:06.247Z,30.37
2019-02-23T01:06:34.435Z,26.83
2019-02-23T01:09:02.858Z,25.60
2019-02-23T01:11:31.121Z,24.27
2019-02-23T01:13:59.282Z,19.83
2019-02-23T01:16:27.439Z,19.80
2019-02-23T01:18:55.640Z,21.33
2019-02-23T01:21:23.793Z,21.70
2019-02-23T01:23:52.051Z,21.50
2019-02-23T01:26:20.261Z,20.97
2019-02-23T01:28:48.416Z,21.40
2019-02-23T01:31:16.579Z,18.43
2019-02-23T01:33:44.812Z,19.07
2019-02-23T01:36:12.967Z,20.37
2019-02-23T01:38:41.168Z,21.23
2019-02-23T01:41:10.275Z,22.53
2019-02-23T01:43:38.432Z,24.60
2019-02-23T01:46:06.589Z,31.03
2019-02-23T01:48:34.781Z,24.57
2019-02-23T01:51:02.941Z,20.53
2019-02-23T01:53:31.095Z,22.63
2019-02-23T01:55:59.363Z,24.57
2019-02-23T01:58:27.526Z,21.23
2019-02-23T02:00:55.743Z,22.87
2019-02-23T02:03:24.218Z,25.00
2019-02-23T02:05:52.847Z,24.03
2019-02-23T02:08:21.002Z,24.97
2019-02-23T02:10:49.210Z,24.03
2019-02-23T02:13:17.420Z,24.80
2019-02-23T02:15:45.760Z,22.03
2019-02-23T02:18:13.957Z,20.13
2019-02-23T02:20:42.147Z,16.97
2019-02-23T02:23:10.304Z,15.30
2019-02-23T02:25:38.500Z,13.53
2019-02-23T02:28:06.652Z,15.07
2019-02-23T02:30:34.823Z,15.57
2019-02-23T02:33:03.063Z,17.40
2019-02-23T02:35:31.230Z,15.83
2019-02-23T02:37:59.377Z,14.80
2019-02-23T02:40:27.571Z,16.03
2019-02-23T02:42:56.750Z,16.07
2019-02-23T02:45:24.861Z,13.93
2019-02-23T02:47:53.068Z,15.40
2019-02-23T02:50:24.529Z,14.20
2019-02-23T02:52:51.054Z,11.13
2019-02-23T02:55:19.256Z,11.40
2019-02-23T02:57:47.410Z,12.23
2019-02-23T03:00:15.625Z,11.33
2019-02-23T03:02:43.843Z,12.77
2019-02-23T03:05:12.023Z,14.67
2019-02-23T03:07:40.268Z,14.90
2019-02-23T03:10:08.486Z,13.73
2019-02-23T03:12:36.643Z,15.60
2019-02-23T03:15:05.763Z,16.67
2019-02-23T03:17:33.958Z,17.13
2019-02-23T03:20:02.111Z,17.07
2019-02-23T03:22:30.268Z,18.37
2019-02-23T03:24:58.470Z,16.33
2019-02-23T03:27:26.679Z,17.63
2019-02-23T03:29:54.836Z,17.73
2019-02-23T03:32:23.033Z,17.23
2019-02-23T03:34:51.207Z,12.70
2019-02-23T03:37:19.362Z,11.43
2019-02-23T03:39:47.559Z,11.97
2019-02-23T03:42:15.704Z,9.93
2019-02-23T03:44:44.752Z,11.07
2019-02-23T03:47:12.936Z,12.30
2019-02-23T03:49:41.104Z,11.97
2019-02-23T03:52:09.371Z,12.20
2019-02-23T03:54:37.576Z,11.30
2019-02-23T03:57:05.729Z,14.17
2019-02-23T03:59:33.883Z,13.67
2019-02-23T04:02:02.079Z,13.40
2019-02-23T04:04:30.302Z,13.37
2019-02-23T04:06:58.458Z,11.20
2019-02-23T04:09:26.657Z,11.23
2019-02-23T04:11:54.809Z,12.03
2019-02-23T04:14:22.985Z,9.87
2019-02-23T04:16:51.180Z,11.03
2019-02-23T04:19:19.381Z,9.13
2019-02-23T04:21:47.799Z,9.83
2019-02-23T04:24:16.075Z,10.10
2019-02-23T04:26:44.219Z,9.90
2019-02-23T04:29:12.384Z,10.10
2019-02-23T04:31:40.592Z,10.00
2019-02-23T04:34:08.748Z,10.40
2019-02-23T04:36:36.899Z,11.93
2019-02-23T04:39:05.249Z,12.00
2019-02-23T04:41:33.384Z,13.03
2019-02-23T04:44:01.549Z,10.70
2019-02-23T04:46:30.696Z,10.90
2019-02-23T04:48:58.853Z,11.33
2019-02-23T04:51:27.005Z,9.40
2019-02-23T04:53:55.212Z,11.90
2019-02-23T04:56:23.369Z,11.53
2019-02-23T04:58:51.525Z,15.10
2019-02-23T05:01:19.720Z,15.37
2019-02-23T05:03:47.878Z,13.90
2019-02-23T05:06:16.029Z,14.27
2019-02-23T05:08:44.226Z,16.53
2019-02-23T05:11:12.444Z,15.97
2019-02-23T05:13:40.606Z,18.60
2019-02-23T05:16:08.791Z,17.23
2019-02-23T05:18:36.955Z,23.27
2019-02-23T05:21:05.180Z,18.30
2019-02-23T05:23:33.381Z,16.43
2019-02-23T05:26:01.532Z,17.17
2019-02-23T05:28:29.710Z,18.00
2019-02-23T05:30:57.909Z,23.33
2019-02-23T05:33:26.126Z,22.17
2019-02-23T05:35:54.280Z,19.30
2019-02-23T05:38:22.477Z,20.27
2019-02-23T05:40:50.702Z,19.93
2019-02-23T05:43:18.853Z,18.40
2019-02-23T05:45:47.068Z,19.43
2019-02-23T05:48:17.916Z,17.63
2019-02-23T05:50:46.077Z,17.00
2019-02-23T05:53:14.301Z,15.53
2019-02-23T05:55:42.445Z,13.53
2019-02-23T05:58:10.599Z,14.77
2019-02-23T06:00:38.795Z,18.93
2019-02-23T06:03:06.949Z,19.20
2019-02-23T06:05:35.099Z,28.93
2019-02-23T06:08:03.317Z,34.33
2019-02-23T06:10:31.482Z,32.63
2019-02-23T06:12:59.636Z,30.97
2019-02-23T06:15:27.820Z,32.33
2019-02-23T06:17:55.981Z,34.43
2019-02-23T06:20:24.193Z,31.03
2019-02-23T06:22:52.410Z,26.03
2019-02-23T06:25:20.594Z,25.93
2019-02-23T06:27:48.756Z,28.27
2019-02-23T06:30:18.454Z,25.90
2019-02-23T06:32:46.756Z,24.07
2019-02-23T06:35:14.911Z,39.63
2019-02-23T06:37:43.115Z,36.23
2019-02-23T06:40:11.540Z,34.97
2019-02-23T06:42:39.701Z,40.80
2019-02-23T06:45:11.454Z,39.30
2019-02-23T06:47:39.623Z,40.87
2019-02-23T06:50:08.724Z,33.57
2019-02-23T06:52:36.952Z,42.93
2019-02-23T06:55:05.982Z,41.90
2019-02-23T06:57:34.056Z,41.23
2019-02-23T07:00:02.260Z,37.37
2019-02-23T07:02:30.419Z,29.13
2019-02-23T07:04:58.584Z,32.70
2019-02-23T07:07:26.781Z,40.77
2019-02-23T07:09:55.167Z,143.50
2019-02-23T07:12:23.336Z,79.80
2019-02-23T07:14:51.773Z,63.30
2019-02-23T07:17:19.994Z,47.93
2019-02-23T07:19:48.152Z,56.33
2019-02-23T07:22:16.593Z,52.93
2019-02-23T07:24:44.747Z,51.83
2019-02-23T07:27:13.655Z,55.37
2019-02-23T07:29:42.421Z,79.33
2019-02-23T07:32:10.583Z,54.90
2019-02-23T07:34:39.000Z,45.27
2019-02-23T07:37:07.137Z,49.40
2019-02-23T07:39:35.306Z,33.40
2019-02-23T07:42:03.455Z,32.27
2019-02-23T07:44:31.665Z,29.20
2019-02-23T07:46:59.834Z,23.30
2019-02-23T07:49:28.617Z,23.90
2019-02-23T07:51:58.056Z,27.27
2019-02-23T07:54:26.228Z,18.67
2019-02-23T07:56:54.387Z,23.07
2019-02-23T07:59:22.604Z,15.60
2019-02-23T08:01:51.364Z,14.20
2019-02-23T08:04:19.625Z,14.90
2019-02-23T08:06:48.075Z,14.30
2019-02-23T08:09:16.250Z,13.27
2019-02-23T08:11:46.851Z,13.57
2019-02-23T08:14:15.063Z,18.77
2019-02-23T08:16:43.225Z,19.23
2019-02-23T08:19:11.435Z,20.93
2019-02-23T08:21:39.625Z,15.47
2019-02-23T08:24:07.990Z,13.47
2019-02-23T08:26:36.136Z,24.50
2019-02-23T08:29:04.337Z,12.63
2019-02-23T08:31:32.502Z,12.50
2019-02-23T08:34:00.721Z,13.53
2019-02-23T08:36:28.952Z,12.70
2019-02-23T08:38:57.168Z,11.40
2019-02-23T08:41:25.321Z,16.27
2019-02-23T08:43:53.542Z,14.20
2019-02-23T08:46:21.703Z,15.10
2019-02-23T08:48:49.860Z,14.00
2019-02-23T08:51:18.062Z,14.87
2019-02-23T08:53:47.213Z,12.13
2019-02-23T08:56:15.392Z,11.47
2019-02-23T08:58:43.888Z,8.63
2019-02-23T09:01:12.048Z,8.13
2019-02-23T09:03:40.353Z,34.37
2019-02-23T09:06:08.613Z,8.30
2019-02-23T09:08:36.852Z,7.93
2019-02-23T09:11:05.206Z,7.90
2019-02-23T09:13:33.617Z,13.97
2019-02-23T09:16:01.766Z,8.13
2019-02-23T09:18:29.920Z,8.00
2019-02-23T09:20:58.195Z,8.47
2019-02-23T09:23:26.532Z,9.37
2019-02-23T09:25:54.739Z,6.87
2019-02-23T09:28:23.395Z,6.93
2019-02-23T09:30:51.825Z,8.53
2019-02-23T09:33:20.027Z,9.77
2019-02-23T09:35:48.231Z,7.87
2019-02-23T09:38:16.395Z,14.10
2019-02-23T09:40:44.558Z,17.13
2019-02-23T09:43:12.759Z,16.87
2019-02-23T09:45:40.909Z,10.43
2019-02-23T09:48:09.303Z,10.87
2019-02-23T09:50:37.552Z,10.47
2019-02-23T09:53:11.357Z,11.40
2019-02-23T09:55:38.455Z,10.40
2019-02-23T09:58:06.916Z,12.10
2019-02-23T10:00:35.421Z,7.60
2019-02-23T10:03:03.575Z,8.93
2019-02-23T10:05:31.932Z,18.43
2019-02-23T10:08:00.094Z,10.67
2019-02-23T10:10:28.558Z,9.23
2019-02-23T10:12:56.776Z,7.00
2019-02-23T10:15:24.960Z,7.53
2019-02-23T10:17:53.123Z,7.77
2019-02-23T10:20:21.592Z,8.20
2019-02-23T10:22:49.757Z,12.00
2019-02-23T10:25:18.439Z,6.80
2019-02-23T10:27:47.117Z,8.07
2019-02-23T10:30:16.534Z,7.47
2019-02-23T10:32:44.922Z,10.27
2019-02-23T10:35:13.936Z,9.03
2019-02-23T10:37:42.136Z,6.63
2019-02-23T10:40:13.455Z,8.33
2019-02-23T10:42:41.803Z,8.13
2019-02-23T10:45:10.988Z,7.30
2019-02-23T10:47:39.284Z,6.63
2019-02-23T10:50:09.277Z,6.20
2019-02-23T10:52:37.724Z,6.27
2019-02-23T10:55:07.749Z,7.17
2019-02-23T10:57:37.203Z,7.93
2019-02-23T11:00:08.876Z,24.40
2019-02-23T11:02:37.206Z,11.23
2019-02-23T11:05:07.631Z,15.00
2019-02-23T11:07:35.981Z,8.43
2019-02-23T11:10:05.137Z,8.47
2019-02-23T11:12:33.347Z,8.00
2019-02-23T11:15:01.683Z,6.37
2019-02-23T11:17:30.104Z,6.63
2019-02-23T11:19:58.498Z,6.60
2019-02-23T11:22:26.840Z,8.57
2019-02-23T11:24:55.356Z,7.47
2019-02-23T11:27:23.662Z,8.00
2019-02-23T11:29:52.037Z,5.70
2019-02-23T11:32:20.583Z,6.97
2019-02-23T11:34:49.093Z,12.77
2019-02-23T11:37:17.597Z,10.17
2019-02-23T11:39:45.984Z,18.23
2019-02-23T11:42:14.352Z,8.97
2019-02-23T11:44:42.901Z,11.10
2019-02-23T11:47:11.058Z,8.23
2019-02-23T11:49:39.490Z,11.57
2019-02-23T11:52:07.661Z,7.33
2019-02-23T11:54:36.108Z,18.50
2019-02-23T11:57:04.942Z,14.27
2019-02-23T11:59:34.115Z,12.80
2019-02-23T12:02:02.286Z,7.70
2019-02-23T12:04:30.480Z,11.13
2019-02-23T12:06:58.651Z,9.03
2019-02-23T12:09:27.095Z,10.77
2019-02-23T12:11:55.429Z,7.83
2019-02-23T12:14:25.843Z,10.83
2019-02-23T12:16:53.468Z,7.23
2019-02-23T12:19:21.662Z,7.00
2019-02-23T12:21:49.921Z,6.87
2019-02-23T12:24:18.201Z,6.20
2019-02-23T12:26:46.501Z,7.03
2019-02-23T12:29:14.667Z,9.93
2019-02-23T12:31:43.150Z,11.77
2019-02-23T12:34:11.355Z,9.63
2019-02-23T12:36:39.513Z,9.90
2019-02-23T12:39:07.716Z,15.37
2019-02-23T12:41:36.011Z,14.73
2019-02-23T12:44:04.185Z,9.00
2019-02-23T12:46:32.432Z,12.77
2019-02-23T12:49:02.304Z,14.37
2019-02-23T12:51:30.472Z,12.70
2019-02-23T12:53:58.641Z,12.57
2019-02-23T12:56:28.550Z,12.00
2019-02-23T12:58:56.691Z,14.60
2019-02-23T13:01:26.067Z,10.93
2019-02-23T13:03:54.443Z,9.33
2019-02-23T13:06:22.641Z,13.57
2019-02-23T13:09:08.927Z,13.27
2019-02-23T13:11:37.417Z,16.40
2019-02-23T13:14:19.841Z,12.50
2019-02-23T13:16:49.564Z,13.47
2019-02-23T13:19:22.777Z,7.87
2019-02-23T13:21:55.618Z,15.60
2019-02-23T13:24:40.714Z,8.67
2019-02-23T13:27:10.558Z,11.20
2019-02-23T13:29:56.812Z,15.37
2019-02-23T13:32:26.664Z,9.13
2019-02-23T13:35:13.215Z,13.00
2019-02-23T13:37:45.751Z,10.90
2019-02-23T13:40:18.529Z,20.83
2019-02-23T13:42:54.629Z,17.13
2019-02-23T13:45:30.168Z,21.73
2019-02-23T13:48:16.488Z,20.03
2019-02-23T13:51:04.637Z,21.00
2019-02-23T13:53:38.827Z,17.07
2019-02-23T13:56:24.986Z,23.77
2019-02-23T13:59:00.941Z,34.50
2019-02-23T14:01:31.533Z,67.20
2019-02-23T14:04:02.789Z,52.00
2019-02-23T14:06:32.613Z,42.47
2019-02-23T14:09:14.407Z,36.70
2019-02-23T14:12:02.490Z,46.37
2019-02-23T14:14:38.556Z,23.23
2019-02-23T14:17:08.391Z,106.33
2019-02-23T14:19:38.404Z,18.17
2019-02-23T14:22:14.207Z,32.60
2019-02-23T14:24:52.974Z,83.57
2019-02-23T14:27:28.678Z,122.07
2019-02-23T14:30:16.529Z,49.27
2019-02-23T14:32:52.821Z,52.87
2019-02-23T14:35:22.616Z,38.57
2019-02-23T14:37:54.862Z,36.90
2019-02-23T14:40:42.841Z,27.87
2019-02-23T14:43:33.440Z,28.40
2019-02-23T14:46:20.945Z,27.73
2019-02-23T14:48:50.889Z,36.70
2019-02-23T14:51:28.026Z,27.90
2019-02-23T14:54:01.034Z,32.83
2019-02-23T14:56:40.085Z,30.77
2019-02-23T14:59:16.615Z,32.73
2019-02-23T15:01:58.745Z,34.80
2019-02-23T15:04:32.380Z,61.13
2019-02-23T15:07:08.152Z,30.73
2019-02-23T15:09:47.126Z,30.03
2019-02-23T15:12:20.102Z,26.23
2019-02-23T15:14:58.914Z,31.40
2019-02-23T15:17:28.743Z,19.20
2019-02-23T15:20:16.965Z,30.93
2019-02-23T15:22:53.025Z,29.30
2019-02-23T15:25:27.070Z,75.17
2019-02-23T15:27:57.402Z,99.43
2019-02-23T15:30:29.726Z,82.53
2019-02-23T15:33:05.190Z,238.37
2019-02-23T15:35:43.917Z,33.53
2019-02-23T15:38:16.486Z,41.93
2019-02-23T15:40:46.471Z,23.77
2019-02-23T15:43:22.770Z,65.63
2019-02-23T15:46:01.933Z,87.27
2019-02-23T15:48:38.345Z,64.17
2019-02-23T15:51:06.570Z,82.70
2019-02-23T15:53:34.816Z,57.20
2019-02-23T15:56:03.111Z,50.90
2019-02-23T15:58:31.873Z,51.57
2019-02-23T16:01:00.049Z,54.53
2019-02-23T16:03:28.516Z,49.03
2019-02-23T16:05:57.632Z,44.93
2019-02-23T16:08:25.788Z,43.47
2019-02-23T16:10:54.059Z,35.77
2019-02-23T16:13:22.305Z,35.63
2019-02-23T16:15:50.585Z,33.47
2019-02-23T16:18:19.187Z,49.90
2019-02-23T16:20:47.577Z,56.50
2019-02-23T16:23:15.838Z,77.23
2019-02-23T16:25:44.056Z,88.37
2019-02-23T16:28:12.226Z,85.53
2019-02-23T16:30:40.396Z,73.40
2019-02-23T16:33:08.814Z,87.23
2019-02-23T16:35:37.073Z,77.37
2019-02-23T16:38:05.291Z,68.33
2019-02-23T16:40:33.437Z,62.27
2019-02-23T16:43:01.686Z,55.17
2019-02-23T16:45:29.932Z,60.53
2019-02-23T16:47:58.127Z,56.67
2019-02-23T16:50:26.459Z,69.90
2019-02-23T16:52:54.831Z,53.07
2019-02-23T16:55:23.958Z,45.63
2019-02-23T16:57:52.725Z,53.67
2019-02-23T17:00:20.991Z,60.87
2019-02-23T17:02:50.727Z,64.20
2019-02-23T17:05:18.905Z,84.30
2019-02-23T17:07:47.986Z,113.87
2019-02-23T17:10:16.364Z,94.70
2019-02-23T17:12:44.730Z,98.47
2019-02-23T17:15:13.586Z,91.27
2019-02-23T17:17:42.198Z,91.90
2019-02-23T17:20:10.344Z,80.57
2019-02-23T17:22:38.661Z,115.30
2019-02-23T17:25:07.111Z,88.23
2019-02-23T17:27:36.403Z,66.37
2019-02-23T17:30:06.037Z,60.93
2019-02-23T17:32:34.381Z,66.60
2019-02-23T17:35:03.605Z,63.00
2019-02-23T17:37:32.507Z,61.47
2019-02-23T17:40:00.855Z,57.77
2019-02-23T17:42:29.021Z,63.57
2019-02-23T17:44:57.196Z,61.23
2019-02-23T17:47:25.467Z,70.60
2019-02-23T17:49:53.624Z,65.70
2019-02-23T17:52:21.798Z,68.73
2019-02-23T17:54:51.388Z,75.83
2019-02-23T17:57:19.693Z,133.57
2019-02-23T17:59:47.926Z,114.03
2019-02-23T18:02:16.269Z,112.17
2019-02-23T18:04:44.487Z,98.43
2019-02-23T18:07:12.654Z,104.33
2019-02-23T18:09:41.946Z,95.23
2019-02-23T18:12:10.196Z,115.30
2019-02-23T18:14:38.573Z,112.37
2019-02-23T18:17:06.912Z,125.07
2019-02-23T18:19:35.204Z,105.37
2019-02-23T18:22:03.571Z,91.70
2019-02-23T18:24:31.970Z,90.73
2019-02-23T18:27:00.229Z,87.53
2019-02-23T18:29:28.684Z,87.20
2019-02-23T18:31:57.080Z,84.90
2019-02-23T18:34:25.448Z,90.80
2019-02-23T18:36:53.758Z,95.67
2019-02-23T18:39:23.074Z,99.10
2019-02-23T18:41:51.274Z,90.90
2019-02-23T18:44:19.450Z,95.07
2019-02-23T18:46:48.088Z,109.97
2019-02-23T18:49:16.322Z,110.40
2019-02-23T18:51:44.497Z,121.27
2019-02-23T18:54:12.788Z,165.90
2019-02-23T18:56:41.059Z,155.47
2019-02-23T18:59:09.463Z,85.27
2019-02-23T19:01:37.792Z,74.70
2019-02-23T19:04:06.017Z,79.80
2019-02-23T19:06:34.185Z,85.77
2019-02-23T19:09:02.643Z,89.70
2019-02-23T19:11:31.752Z,89.90
2019-02-23T19:14:02.799Z,105.37
2019-02-23T19:16:33.939Z,110.20
2019-02-23T19:19:01.836Z,121.10
2019-02-23T19:21:30.285Z,103.80
2019-02-23T19:23:58.476Z,98.63
2019-02-23T19:26:26.944Z,103.20
2019-02-23T19:28:55.267Z,87.97
2019-02-23T19:31:23.604Z,102.20
2019-02-23T19:33:52.069Z,73.73
2019-02-23T19:36:20.247Z,72.87
2019-02-23T19:38:48.456Z,71.40
2019-02-23T19:41:16.792Z,69.77
2019-02-23T19:43:44.991Z,69.57
2019-02-23T19:46:13.419Z,70.07
2019-02-23T19:48:41.664Z,88.63
2019-02-23T19:51:10.113Z,93.10
2019-02-23T19:53:38.909Z,78.90
2019-02-23T19:56:07.148Z,88.63
2019-02-23T19:58:35.310Z,86.40
2019-02-23T20:01:03.962Z,97.40
2019-02-23T20:03:32.128Z,107.57
2019-02-23T20:06:00.492Z,103.23
2019-02-23T20:08:28.874Z,103.87
2019-02-23T20:10:57.032Z,96.57
2019-02-23T20:13:26.391Z,79.37
2019-02-23T20:15:54.650Z,77.23
2019-02-23T20:18:22.905Z,82.73
2019-02-23T20:20:51.067Z,98.47
2019-02-23T20:23:19.522Z,91.47
2019-02-23T20:25:47.733Z,72.07
2019-02-23T20:28:16.173Z,63.40
2019-02-23T20:30:44.419Z,77.47
2019-02-23T20:33:12.591Z,83.80
2019-02-23T20:35:40.840Z,56.83
2019-02-23T20:38:09.692Z,76.77
2019-02-23T20:40:38.578Z,80.63
2019-02-23T20:43:06.749Z,87.67
2019-02-23T20:45:34.974Z,118.30
2019-02-23T20:48:03.219Z,111.03
2019-02-23T20:50:31.650Z,115.80
2019-02-23T20:53:00.062Z,114.77
2019-02-23T20:55:28.395Z,88.47
2019-02-23T20:57:56.590Z,94.40
2019-02-23T21:00:26.711Z,90.50
2019-02-23T21:02:54.734Z,94.83
2019-02-23T21:05:23.035Z,88.50
2019-02-23T21:07:51.252Z,89.13
2019-02-23T21:10:19.423Z,65.13
2019-02-23T21:12:47.652Z,71.13
2019-02-23T21:15:16.938Z,86.33
2019-02-23T21:17:45.119Z,100.27
2019-02-23T21:20:13.292Z,102.63
2019-02-23T21:22:41.530Z,95.67
2019-02-23T21:25:09.749Z,82.17
2019-02-23T21:27:37.919Z,74.93
2019-02-23T21:30:07.624Z,73.30
2019-02-23T21:32:36.034Z,70.77
2019-02-23T21:35:05.354Z,65.77
2019-02-23T21:37:33.639Z,80.77
2019-02-23T21:40:01.951Z,103.03
2019-02-23T21:42:30.129Z,105.47
2019-02-23T21:44:58.408Z,95.43
2019-02-23T21:47:26.656Z,100.17
2019-02-23T21:49:54.985Z,103.23
2019-02-23T21:52:23.317Z,91.07
2019-02-23T21:54:51.560Z,104.63
2019-02-23T21:57:22.202Z,112.40
2019-02-23T21:59:49.800Z,114.80
2019-02-23T22:02:17.989Z,126.23
2019-02-23T22:04:46.740Z,124.43
2019-02-23T22:07:15.305Z,129.00
2019-02-23T22:09:43.533Z,140.23
2019-02-23T22:12:11.705Z,113.80
2019-02-23T22:14:39.941Z,96.37
2019-02-23T22:17:09.080Z,86.20
2019-02-23T22:19:37.227Z,68.50
2019-02-23T22:22:05.809Z,59.30
2019-02-23T22:24:34.050Z,59.10
2019-02-23T22:27:02.268Z,55.13
2019-02-23T22:29:30.661Z,67.20
2019-02-23T22:31:58.959Z,61.20
2019-02-23T22:34:27.129Z,58.27
2019-02-23T22:36:55.391Z,55.33
2019-02-23T22:39:23.567Z,52.07
2019-02-23T22:41:51.719Z,47.03
2019-02-23T22:44:20.106Z,57.47
2019-02-23T22:46:48.376Z,63.63
2019-02-23T22:49:16.632Z,77.53
2019-02-23T22:51:44.836Z,55.43
2019-02-23T22:54:13.001Z,54.57
2019-02-23T22:56:41.172Z,48.37
2019-02-23T22:59:09.632Z,52.47
2019-02-23T23:01:37.873Z,86.27
2019-02-23T23:04:06.331Z,82.03
2019-02-23T23:06:34.541Z,71.90
2019-02-23T23:09:02.812Z,57.57
2019-02-23T23:11:33.351Z,50.20
2019-02-23T23:14:01.649Z,51.33
2019-02-23T23:16:29.963Z,48.77
2019-02-23T23:18:59.154Z,49.60
2019-02-23T23:21:27.367Z,51.83
2019-02-23T23:23:55.569Z,48.40
2019-02-23T23:26:23.968Z,42.50
2019-02-23T23:28:52.180Z,47.20
2019-02-23T23:31:20.342Z,45.57
2019-02-23T23:33:48.530Z,45.80
2019-02-23T23:36:16.735Z,45.20
2019-02-23T23:38:44.893Z,46.60
2019-02-23T23:41:13.132Z,46.83
2019-02-23T23:43:41.334Z,44.73
2019-02-23T23:46:09.488Z,42.00
2019-02-23T23:48:37.680Z,39.93
2019-02-23T23:51:05.876Z,41.63
2019-02-23T23:53:34.034Z,48.57
2019-02-23T23:56:02.198Z,42.67
2019-02-23T23:58:30.625Z,36.10
